
<gpx xmlns="http://www.topografix.com/GPX/1/1" xmlns:gpxx="http://www.garmin.com/xmlschemas/GpxExtensions/v3" xmlns:xsi="http://www.w3.org/2001/XMLSchema-instance" version="1.1" creator="Adze - http://kobotsw.com/apps/adze" xsi:schemaLocation="http://www.topografix.com/GPX/1/1 http://www.topografix.com/GPX/1/1/gpx.xsd http://www.garmin.com/xmlschemas/GpxExtensions/v3 http://www.garmin.com/xmlschemas/GpxExtensionsv3.xsd">
    <metadata>
        <name>Untitled Document</name>
        <link href="http://www.garmin.com"></link>
        <time>2018-02-04T02:26:56.442Z</time>
    </metadata>
    <wpt lon="101.274628" lat="14.318440">
        <ele>70.000000</ele>
        <time>2017-01-28T10:19:31Z</time>
        <name>Royal Hills Golf</name>
        <sym>Lodging</sym>
        <extensions>
            <gpxx:WaypointExtension xmlns:gpxx="http://www.garmin.com/xmlschemas/GpxExtensions/v3">
                <gpxx:DisplayMode>SymbolAndName</gpxx:DisplayMode>
            </gpxx:WaypointExtension>
        </extensions>
    </wpt>
    <wpt lon="101.279629" lat="14.345025">
        <time>2017-01-29T09:33:40Z</time>
        <name>Water Sunday</name>
        <cmt>Wood/Forest</cmt>
        <desc>Wood/Forest</desc>
        <sym>Drinking Water</sym>
        <extensions>
            <gpxx:WaypointExtension xmlns:gpxx="http://www.garmin.com/xmlschemas/GpxExtensions/v3">
                <gpxx:DisplayMode>SymbolOnly</gpxx:DisplayMode>
            </gpxx:WaypointExtension>
        </extensions>
    </wpt>
    <trk>
        <name>Sunday</name>
        <extensions>
            <gpxx:TrackExtension xmlns:gpxx="http://www.garmin.com/xmlschemas/GpxExtensions/v3">
                <gpxx:DisplayColor>Green</gpxx:DisplayColor>
            </gpxx:TrackExtension>
        </extensions>
        <trkseg>
            <trkpt lon="101.274854" lat="14.318537">
                <ele>69.830000</ele>
                <time>2017-01-29T03:08:01Z</time>
            </trkpt>
            <trkpt lon="101.273931" lat="14.319066">
                <ele>72.240000</ele>
                <time>2017-01-29T03:08:32Z</time>
            </trkpt>
            <trkpt lon="101.273436" lat="14.319791">
                <ele>73.200000</ele>
                <time>2017-01-29T03:08:51Z</time>
            </trkpt>
            <trkpt lon="101.272610" lat="14.321314">
                <ele>70.790000</ele>
                <time>2017-01-29T03:09:21Z</time>
            </trkpt>
            <trkpt lon="101.271362" lat="14.322606">
                <ele>71.760000</ele>
                <time>2017-01-29T03:09:52Z</time>
            </trkpt>
            <trkpt lon="101.269269" lat="14.324207">
                <ele>73.680000</ele>
                <time>2017-01-29T03:10:39Z</time>
            </trkpt>
            <trkpt lon="101.269206" lat="14.324348">
                <ele>74.160000</ele>
                <time>2017-01-29T03:10:42Z</time>
            </trkpt>
            <trkpt lon="101.269145" lat="14.324430">
                <ele>74.160000</ele>
                <time>2017-01-29T03:10:44Z</time>
            </trkpt>
            <trkpt lon="101.269070" lat="14.324499">
                <ele>74.160000</ele>
                <time>2017-01-29T03:10:46Z</time>
            </trkpt>
            <trkpt lon="101.267895" lat="14.325133">
                <ele>76.560000</ele>
                <time>2017-01-29T03:11:12Z</time>
            </trkpt>
            <trkpt lon="101.267846" lat="14.325144">
                <ele>76.560000</ele>
                <time>2017-01-29T03:11:13Z</time>
            </trkpt>
            <trkpt lon="101.267398" lat="14.325186">
                <ele>77.520000</ele>
                <time>2017-01-29T03:11:22Z</time>
            </trkpt>
            <trkpt lon="101.266973" lat="14.325397">
                <ele>78.000000</ele>
                <time>2017-01-29T03:11:31Z</time>
            </trkpt>
            <trkpt lon="101.264966" lat="14.326889">
                <ele>82.330000</ele>
                <time>2017-01-29T03:12:24Z</time>
            </trkpt>
            <trkpt lon="101.264331" lat="14.327425">
                <ele>83.290000</ele>
                <time>2017-01-29T03:12:41Z</time>
            </trkpt>
            <trkpt lon="101.264234" lat="14.327479">
                <ele>83.770000</ele>
                <time>2017-01-29T03:12:43Z</time>
            </trkpt>
            <trkpt lon="101.263780" lat="14.327686">
                <ele>84.250000</ele>
                <time>2017-01-29T03:12:52Z</time>
            </trkpt>
            <trkpt lon="101.262930" lat="14.328722">
                <ele>86.180000</ele>
                <time>2017-01-29T03:13:17Z</time>
            </trkpt>
            <trkpt lon="101.260923" lat="14.330536">
                <ele>91.940000</ele>
                <time>2017-01-29T03:14:10Z</time>
            </trkpt>
            <trkpt lon="101.260396" lat="14.331252">
                <ele>94.350000</ele>
                <time>2017-01-29T03:14:29Z</time>
            </trkpt>
            <trkpt lon="101.260402" lat="14.331425">
                <ele>94.350000</ele>
                <time>2017-01-29T03:14:33Z</time>
            </trkpt>
            <trkpt lon="101.261241" lat="14.331974">
                <ele>95.790000</ele>
                <time>2017-01-29T03:14:53Z</time>
            </trkpt>
            <trkpt lon="101.262432" lat="14.332511">
                <ele>97.230000</ele>
                <time>2017-01-29T03:15:21Z</time>
            </trkpt>
            <trkpt lon="101.263726" lat="14.333092">
                <ele>104.440000</ele>
                <time>2017-01-29T03:16:05Z</time>
            </trkpt>
            <trkpt lon="101.263942" lat="14.333031">
                <ele>104.920000</ele>
                <time>2017-01-29T03:16:11Z</time>
            </trkpt>
            <trkpt lon="101.264242" lat="14.332923">
                <ele>105.400000</ele>
                <time>2017-01-29T03:16:18Z</time>
            </trkpt>
            <trkpt lon="101.265138" lat="14.332417">
                <ele>101.560000</ele>
                <time>2017-01-29T03:16:35Z</time>
            </trkpt>
            <trkpt lon="101.267477" lat="14.331373">
                <ele>95.790000</ele>
                <time>2017-01-29T03:17:11Z</time>
            </trkpt>
            <trkpt lon="101.268591" lat="14.330022">
                <ele>89.060000</ele>
                <time>2017-01-29T03:17:34Z</time>
            </trkpt>
            <trkpt lon="101.269204" lat="14.329491">
                <ele>86.660000</ele>
                <time>2017-01-29T03:17:46Z</time>
            </trkpt>
            <trkpt lon="101.272182" lat="14.327597">
                <ele>79.930000</ele>
                <time>2017-01-29T03:18:35Z</time>
            </trkpt>
            <trkpt lon="101.272392" lat="14.327359">
                <ele>79.930000</ele>
                <time>2017-01-29T03:18:40Z</time>
            </trkpt>
            <trkpt lon="101.273039" lat="14.326271">
                <ele>78.000000</ele>
                <time>2017-01-29T03:18:59Z</time>
            </trkpt>
            <trkpt lon="101.273453" lat="14.325634">
                <ele>75.120000</ele>
                <time>2017-01-29T03:19:10Z</time>
            </trkpt>
            <trkpt lon="101.273735" lat="14.325442">
                <ele>74.640000</ele>
                <time>2017-01-29T03:19:15Z</time>
            </trkpt>
            <trkpt lon="101.274804" lat="14.324873">
                <ele>72.240000</ele>
                <time>2017-01-29T03:19:34Z</time>
            </trkpt>
            <trkpt lon="101.275422" lat="14.324691">
                <ele>71.760000</ele>
                <time>2017-01-29T03:19:43Z</time>
            </trkpt>
            <trkpt lon="101.276766" lat="14.324273">
                <ele>69.350000</ele>
                <time>2017-01-29T03:20:03Z</time>
            </trkpt>
            <trkpt lon="101.278786" lat="14.323255">
                <ele>63.100000</ele>
                <time>2017-01-29T03:20:35Z</time>
            </trkpt>
            <trkpt lon="101.278900" lat="14.323253">
                <ele>62.140000</ele>
                <time>2017-01-29T03:20:37Z</time>
            </trkpt>
            <trkpt lon="101.278995" lat="14.323278">
                <ele>62.140000</ele>
                <time>2017-01-29T03:20:39Z</time>
            </trkpt>
            <trkpt lon="101.283241" lat="14.322029">
                <ele>56.370000</ele>
                <time>2017-01-29T03:21:42Z</time>
            </trkpt>
            <trkpt lon="101.283548" lat="14.321919">
                <ele>54.930000</ele>
                <time>2017-01-29T03:21:48Z</time>
            </trkpt>
            <trkpt lon="101.283608" lat="14.321900">
                <ele>54.450000</ele>
                <time>2017-01-29T03:21:51Z</time>
            </trkpt>
            <trkpt lon="101.283619" lat="14.321875">
                <ele>53.970000</ele>
                <time>2017-01-29T03:21:53Z</time>
            </trkpt>
            <trkpt lon="101.284021" lat="14.322532">
                <ele>54.930000</ele>
                <time>2017-01-29T03:22:12Z</time>
            </trkpt>
            <trkpt lon="101.283973" lat="14.322795">
                <ele>55.890000</ele>
                <time>2017-01-29T03:22:16Z</time>
            </trkpt>
            <trkpt lon="101.284409" lat="14.324086">
                <ele>55.410000</ele>
                <time>2017-01-29T03:22:36Z</time>
            </trkpt>
            <trkpt lon="101.284303" lat="14.324449">
                <ele>55.410000</ele>
                <time>2017-01-29T03:22:42Z</time>
            </trkpt>
            <trkpt lon="101.284309" lat="14.324549">
                <ele>55.410000</ele>
                <time>2017-01-29T03:22:44Z</time>
            </trkpt>
            <trkpt lon="101.284706" lat="14.324619">
                <ele>55.890000</ele>
                <time>2017-01-29T03:22:51Z</time>
            </trkpt>
            <trkpt lon="101.285150" lat="14.324382">
                <ele>55.410000</ele>
                <time>2017-01-29T03:22:59Z</time>
            </trkpt>
            <trkpt lon="101.285557" lat="14.324415">
                <ele>53.970000</ele>
                <time>2017-01-29T03:23:05Z</time>
            </trkpt>
            <trkpt lon="101.287024" lat="14.324110">
                <ele>51.090000</ele>
                <time>2017-01-29T03:23:26Z</time>
            </trkpt>
            <trkpt lon="101.287142" lat="14.324076">
                <ele>51.090000</ele>
                <time>2017-01-29T03:23:28Z</time>
            </trkpt>
            <trkpt lon="101.287254" lat="14.324089">
                <ele>51.090000</ele>
                <time>2017-01-29T03:23:30Z</time>
            </trkpt>
            <trkpt lon="101.287560" lat="14.325317">
                <ele>52.050000</ele>
                <time>2017-01-29T03:23:54Z</time>
            </trkpt>
            <trkpt lon="101.288594" lat="14.325374">
                <ele>52.050000</ele>
                <time>2017-01-29T03:24:30Z</time>
            </trkpt>
            <trkpt lon="101.289223" lat="14.324981">
                <ele>49.160000</ele>
                <time>2017-01-29T03:24:55Z</time>
            </trkpt>
            <trkpt lon="101.289555" lat="14.324913">
                <ele>48.680000</ele>
                <time>2017-01-29T03:25:06Z</time>
            </trkpt>
            <trkpt lon="101.289616" lat="14.324908">
                <ele>48.200000</ele>
                <time>2017-01-29T03:25:09Z</time>
            </trkpt>
            <trkpt lon="101.291049" lat="14.325365">
                <ele>50.610000</ele>
                <time>2017-01-29T03:25:47Z</time>
            </trkpt>
            <trkpt lon="101.291100" lat="14.325409">
                <ele>50.130000</ele>
                <time>2017-01-29T03:25:48Z</time>
            </trkpt>
            <trkpt lon="101.291305" lat="14.325726">
                <ele>50.610000</ele>
                <time>2017-01-29T03:25:54Z</time>
            </trkpt>
            <trkpt lon="101.291200" lat="14.326201">
                <ele>50.610000</ele>
                <time>2017-01-29T03:26:02Z</time>
            </trkpt>
            <trkpt lon="101.291080" lat="14.326317">
                <ele>51.090000</ele>
                <time>2017-01-29T03:26:05Z</time>
            </trkpt>
            <trkpt lon="101.290736" lat="14.326664">
                <ele>53.490000</ele>
                <time>2017-01-29T03:26:14Z</time>
            </trkpt>
            <trkpt lon="101.290239" lat="14.328185">
                <ele>55.890000</ele>
                <time>2017-01-29T03:26:42Z</time>
            </trkpt>
            <trkpt lon="101.289734" lat="14.329918">
                <ele>55.410000</ele>
                <time>2017-01-29T03:27:13Z</time>
            </trkpt>
            <trkpt lon="101.289335" lat="14.330884">
                <ele>56.370000</ele>
                <time>2017-01-29T03:27:28Z</time>
            </trkpt>
            <trkpt lon="101.288483" lat="14.332320">
                <ele>55.890000</ele>
                <time>2017-01-29T03:27:55Z</time>
            </trkpt>
            <trkpt lon="101.288372" lat="14.332458">
                <ele>56.370000</ele>
                <time>2017-01-29T03:27:58Z</time>
            </trkpt>
            <trkpt lon="101.288248" lat="14.332669">
                <ele>56.370000</ele>
                <time>2017-01-29T03:28:03Z</time>
            </trkpt>
            <trkpt lon="101.288271" lat="14.332724">
                <ele>56.370000</ele>
                <time>2017-01-29T03:28:05Z</time>
            </trkpt>
            <trkpt lon="101.289138" lat="14.333618">
                <ele>53.970000</ele>
                <time>2017-01-29T03:28:45Z</time>
            </trkpt>
            <trkpt lon="101.289027" lat="14.334383">
                <ele>54.930000</ele>
                <time>2017-01-29T03:29:12Z</time>
            </trkpt>
            <trkpt lon="101.287365" lat="14.336198">
                <ele>56.860000</ele>
                <time>2017-01-29T03:30:11Z</time>
            </trkpt>
            <trkpt lon="101.286986" lat="14.336508">
                <ele>57.340000</ele>
                <time>2017-01-29T03:30:23Z</time>
            </trkpt>
            <trkpt lon="101.286594" lat="14.336469">
                <ele>57.820000</ele>
                <time>2017-01-29T03:30:35Z</time>
            </trkpt>
            <trkpt lon="101.286314" lat="14.336254">
                <ele>57.340000</ele>
                <time>2017-01-29T03:30:47Z</time>
            </trkpt>
            <trkpt lon="101.285466" lat="14.335669">
                <ele>60.700000</ele>
                <time>2017-01-29T03:31:35Z</time>
            </trkpt>
            <trkpt lon="101.285381" lat="14.335733">
                <ele>61.180000</ele>
                <time>2017-01-29T03:31:40Z</time>
            </trkpt>
            <trkpt lon="101.284759" lat="14.336650">
                <ele>57.340000</ele>
                <time>2017-01-29T03:32:07Z</time>
            </trkpt>
            <trkpt lon="101.284552" lat="14.336759">
                <ele>57.820000</ele>
                <time>2017-01-29T03:32:14Z</time>
            </trkpt>
            <trkpt lon="101.284613" lat="14.337982">
                <ele>59.740000</ele>
                <time>2017-01-29T03:32:50Z</time>
            </trkpt>
            <trkpt lon="101.285147" lat="14.338884">
                <ele>58.780000</ele>
                <time>2017-01-29T03:33:25Z</time>
            </trkpt>
            <trkpt lon="101.285305" lat="14.339264">
                <ele>59.260000</ele>
                <time>2017-01-29T03:33:42Z</time>
            </trkpt>
            <trkpt lon="101.284350" lat="14.339342">
                <ele>59.260000</ele>
                <time>2017-01-29T03:34:37Z</time>
            </trkpt>
            <trkpt lon="101.284034" lat="14.339583">
                <ele>60.220000</ele>
                <time>2017-01-29T03:34:50Z</time>
            </trkpt>
            <trkpt lon="101.283832" lat="14.339549">
                <ele>59.740000</ele>
                <time>2017-01-29T03:35:01Z</time>
            </trkpt>
            <trkpt lon="101.283794" lat="14.339326">
                <ele>59.740000</ele>
                <time>2017-01-29T03:35:13Z</time>
            </trkpt>
            <trkpt lon="101.282859" lat="14.339344">
                <ele>60.700000</ele>
                <time>2017-01-29T03:35:51Z</time>
            </trkpt>
            <trkpt lon="101.282667" lat="14.339361">
                <ele>60.220000</ele>
                <time>2017-01-29T03:35:57Z</time>
            </trkpt>
            <trkpt lon="101.282391" lat="14.339939">
                <ele>60.700000</ele>
                <time>2017-01-29T03:36:20Z</time>
            </trkpt>
            <trkpt lon="101.281979" lat="14.340182">
                <ele>61.180000</ele>
                <time>2017-01-29T03:36:41Z</time>
            </trkpt>
            <trkpt lon="101.281353" lat="14.341069">
                <ele>62.620000</ele>
                <time>2017-01-29T03:37:15Z</time>
            </trkpt>
            <trkpt lon="101.281037" lat="14.341065">
                <ele>62.620000</ele>
                <time>2017-01-29T03:37:26Z</time>
            </trkpt>
            <trkpt lon="101.280897" lat="14.340697">
                <ele>62.140000</ele>
                <time>2017-01-29T03:38:04Z</time>
            </trkpt>
            <trkpt lon="101.281171" lat="14.341197">
                <ele>62.140000</ele>
                <time>2017-01-29T03:38:31Z</time>
            </trkpt>
            <trkpt lon="101.280753" lat="14.341813">
                <ele>64.550000</ele>
                <time>2017-01-29T03:39:08Z</time>
            </trkpt>
            <trkpt lon="101.280456" lat="14.342226">
                <ele>65.030000</ele>
                <time>2017-01-29T03:39:26Z</time>
            </trkpt>
            <trkpt lon="101.280075" lat="14.341964">
                <ele>64.070000</ele>
                <time>2017-01-29T03:39:42Z</time>
            </trkpt>
            <trkpt lon="101.279832" lat="14.342327">
                <ele>65.030000</ele>
                <time>2017-01-29T03:40:00Z</time>
            </trkpt>
            <trkpt lon="101.279557" lat="14.342655">
                <ele>65.510000</ele>
                <time>2017-01-29T03:40:19Z</time>
            </trkpt>
            <trkpt lon="101.279181" lat="14.342449">
                <ele>66.950000</ele>
                <time>2017-01-29T03:40:33Z</time>
            </trkpt>
            <trkpt lon="101.278903" lat="14.342755">
                <ele>67.910000</ele>
                <time>2017-01-29T03:40:48Z</time>
            </trkpt>
            <trkpt lon="101.278536" lat="14.343125">
                <ele>66.470000</ele>
                <time>2017-01-29T03:41:00Z</time>
            </trkpt>
            <trkpt lon="101.278318" lat="14.343394">
                <ele>66.950000</ele>
                <time>2017-01-29T03:41:10Z</time>
            </trkpt>
            <trkpt lon="101.278398" lat="14.343649">
                <ele>65.990000</ele>
                <time>2017-01-29T03:41:19Z</time>
            </trkpt>
            <trkpt lon="101.278848" lat="14.343776">
                <ele>66.470000</ele>
                <time>2017-01-29T03:41:31Z</time>
            </trkpt>
            <trkpt lon="101.279110" lat="14.344155">
                <ele>66.950000</ele>
                <time>2017-01-29T03:41:43Z</time>
            </trkpt>
            <trkpt lon="101.279467" lat="14.344778">
                <ele>65.990000</ele>
                <time>2017-01-29T03:42:12Z</time>
            </trkpt>
            <trkpt lon="101.279384" lat="14.344905">
                <ele>72.720000</ele>
                <time>2017-01-29T03:55:37Z</time>
            </trkpt>
            <trkpt lon="101.279733" lat="14.344677">
                <ele>74.160000</ele>
                <time>2017-01-29T03:56:31Z</time>
            </trkpt>
            <trkpt lon="101.279900" lat="14.344589">
                <ele>74.160000</ele>
                <time>2017-01-29T03:56:49Z</time>
            </trkpt>
            <trkpt lon="101.280242" lat="14.344166">
                <ele>73.680000</ele>
                <time>2017-01-29T03:57:05Z</time>
            </trkpt>
            <trkpt lon="101.280866" lat="14.343663">
                <ele>74.160000</ele>
                <time>2017-01-29T03:57:39Z</time>
            </trkpt>
            <trkpt lon="101.281347" lat="14.342667">
                <ele>72.720000</ele>
                <time>2017-01-29T03:58:07Z</time>
            </trkpt>
            <trkpt lon="101.281325" lat="14.342341">
                <ele>72.240000</ele>
                <time>2017-01-29T03:58:15Z</time>
            </trkpt>
            <trkpt lon="101.282518" lat="14.341085">
                <ele>68.390000</ele>
                <time>2017-01-29T03:59:00Z</time>
            </trkpt>
            <trkpt lon="101.282540" lat="14.340967">
                <ele>68.390000</ele>
                <time>2017-01-29T03:59:11Z</time>
            </trkpt>
            <trkpt lon="101.282737" lat="14.341660">
                <ele>69.350000</ele>
                <time>2017-01-29T03:59:45Z</time>
            </trkpt>
            <trkpt lon="101.282827" lat="14.341623">
                <ele>68.390000</ele>
                <time>2017-01-29T03:59:50Z</time>
            </trkpt>
            <trkpt lon="101.283564" lat="14.341204">
                <ele>67.910000</ele>
                <time>2017-01-29T04:00:17Z</time>
            </trkpt>
            <trkpt lon="101.283644" lat="14.340757">
                <ele>66.950000</ele>
                <time>2017-01-29T04:00:31Z</time>
            </trkpt>
            <trkpt lon="101.283902" lat="14.340249">
                <ele>66.950000</ele>
                <time>2017-01-29T04:00:44Z</time>
            </trkpt>
            <trkpt lon="101.285311" lat="14.339681">
                <ele>64.070000</ele>
                <time>2017-01-29T04:01:19Z</time>
            </trkpt>
            <trkpt lon="101.286067" lat="14.339366">
                <ele>64.070000</ele>
                <time>2017-01-29T04:01:51Z</time>
            </trkpt>
            <trkpt lon="101.286987" lat="14.338489">
                <ele>61.180000</ele>
                <time>2017-01-29T04:02:24Z</time>
            </trkpt>
            <trkpt lon="101.287216" lat="14.338065">
                <ele>60.220000</ele>
                <time>2017-01-29T04:02:34Z</time>
            </trkpt>
            <trkpt lon="101.287558" lat="14.337866">
                <ele>59.740000</ele>
                <time>2017-01-29T04:02:44Z</time>
            </trkpt>
            <trkpt lon="101.287850" lat="14.337651">
                <ele>58.780000</ele>
                <time>2017-01-29T04:02:55Z</time>
            </trkpt>
            <trkpt lon="101.287909" lat="14.337037">
                <ele>58.780000</ele>
                <time>2017-01-29T04:04:11Z</time>
            </trkpt>
            <trkpt lon="101.288051" lat="14.336953">
                <ele>59.740000</ele>
                <time>2017-01-29T04:04:26Z</time>
            </trkpt>
            <trkpt lon="101.288420" lat="14.336809">
                <ele>59.260000</ele>
                <time>2017-01-29T04:04:39Z</time>
            </trkpt>
            <trkpt lon="101.289485" lat="14.336354">
                <ele>56.370000</ele>
                <time>2017-01-29T04:05:50Z</time>
            </trkpt>
            <trkpt lon="101.290971" lat="14.334104">
                <ele>52.530000</ele>
                <time>2017-01-29T04:07:20Z</time>
            </trkpt>
            <trkpt lon="101.290963" lat="14.333875">
                <ele>51.090000</ele>
                <time>2017-01-29T04:07:32Z</time>
            </trkpt>
            <trkpt lon="101.291530" lat="14.333391">
                <ele>52.050000</ele>
                <time>2017-01-29T04:08:10Z</time>
            </trkpt>
            <trkpt lon="101.291996" lat="14.332825">
                <ele>50.130000</ele>
                <time>2017-01-29T04:08:27Z</time>
            </trkpt>
            <trkpt lon="101.292638" lat="14.332360">
                <ele>50.130000</ele>
                <time>2017-01-29T04:08:42Z</time>
            </trkpt>
            <trkpt lon="101.293053" lat="14.332164">
                <ele>50.130000</ele>
                <time>2017-01-29T04:08:50Z</time>
            </trkpt>
            <trkpt lon="101.293762" lat="14.331973">
                <ele>49.650000</ele>
                <time>2017-01-29T04:09:02Z</time>
            </trkpt>
            <trkpt lon="101.295744" lat="14.332005">
                <ele>46.760000</ele>
                <time>2017-01-29T04:09:41Z</time>
            </trkpt>
            <trkpt lon="101.296556" lat="14.331745">
                <ele>46.280000</ele>
                <time>2017-01-29T04:10:02Z</time>
            </trkpt>
            <trkpt lon="101.297558" lat="14.330758">
                <ele>44.360000</ele>
                <time>2017-01-29T04:10:30Z</time>
            </trkpt>
            <trkpt lon="101.297648" lat="14.330611">
                <ele>43.880000</ele>
                <time>2017-01-29T04:10:34Z</time>
            </trkpt>
            <trkpt lon="101.299000" lat="14.329528">
                <ele>43.400000</ele>
                <time>2017-01-29T04:11:09Z</time>
            </trkpt>
            <trkpt lon="101.299450" lat="14.329236">
                <ele>42.920000</ele>
                <time>2017-01-29T04:11:20Z</time>
            </trkpt>
            <trkpt lon="101.300398" lat="14.328113">
                <ele>40.510000</ele>
                <time>2017-01-29T04:11:52Z</time>
            </trkpt>
            <trkpt lon="101.300976" lat="14.327139">
                <ele>40.030000</ele>
                <time>2017-01-29T04:12:20Z</time>
            </trkpt>
            <trkpt lon="101.300944" lat="14.326590">
                <ele>40.030000</ele>
                <time>2017-01-29T04:12:36Z</time>
            </trkpt>
            <trkpt lon="101.300037" lat="14.326727">
                <ele>40.510000</ele>
                <time>2017-01-29T04:13:06Z</time>
            </trkpt>
            <trkpt lon="101.299187" lat="14.326511">
                <ele>41.470000</ele>
                <time>2017-01-29T04:13:26Z</time>
            </trkpt>
            <trkpt lon="101.298759" lat="14.325861">
                <ele>41.470000</ele>
                <time>2017-01-29T04:13:43Z</time>
            </trkpt>
            <trkpt lon="101.298625" lat="14.325837">
                <ele>41.950000</ele>
                <time>2017-01-29T04:13:51Z</time>
            </trkpt>
            <trkpt lon="101.298481" lat="14.325551">
                <ele>42.920000</ele>
                <time>2017-01-29T04:14:00Z</time>
            </trkpt>
            <trkpt lon="101.298322" lat="14.325210">
                <ele>42.920000</ele>
                <time>2017-01-29T04:14:09Z</time>
            </trkpt>
            <trkpt lon="101.297812" lat="14.322518">
                <ele>39.550000</ele>
                <time>2017-01-29T04:15:03Z</time>
            </trkpt>
            <trkpt lon="101.297967" lat="14.321765">
                <ele>38.590000</ele>
                <time>2017-01-29T04:15:20Z</time>
            </trkpt>
            <trkpt lon="101.297477" lat="14.321573">
                <ele>39.550000</ele>
                <time>2017-01-29T04:15:33Z</time>
            </trkpt>
            <trkpt lon="101.297364" lat="14.321412">
                <ele>39.550000</ele>
                <time>2017-01-29T04:15:39Z</time>
            </trkpt>
            <trkpt lon="101.295842" lat="14.321615">
                <ele>40.510000</ele>
                <time>2017-01-29T04:16:21Z</time>
            </trkpt>
            <trkpt lon="101.294454" lat="14.321978">
                <ele>41.470000</ele>
                <time>2017-01-29T04:17:13Z</time>
            </trkpt>
            <trkpt lon="101.294363" lat="14.322519">
                <ele>42.920000</ele>
                <time>2017-01-29T04:17:29Z</time>
            </trkpt>
            <trkpt lon="101.294429" lat="14.323206">
                <ele>43.400000</ele>
                <time>2017-01-29T04:17:43Z</time>
            </trkpt>
            <trkpt lon="101.294416" lat="14.323644">
                <ele>43.400000</ele>
                <time>2017-01-29T04:17:52Z</time>
            </trkpt>
            <trkpt lon="101.293674" lat="14.323816">
                <ele>43.880000</ele>
                <time>2017-01-29T04:18:09Z</time>
            </trkpt>
            <trkpt lon="101.292722" lat="14.323779">
                <ele>43.400000</ele>
                <time>2017-01-29T04:18:28Z</time>
            </trkpt>
            <trkpt lon="101.292256" lat="14.323344">
                <ele>43.400000</ele>
                <time>2017-01-29T04:18:42Z</time>
            </trkpt>
            <trkpt lon="101.292193" lat="14.321690">
                <ele>41.950000</ele>
                <time>2017-01-29T04:19:11Z</time>
            </trkpt>
            <trkpt lon="101.291946" lat="14.321485">
                <ele>41.950000</ele>
                <time>2017-01-29T04:19:18Z</time>
            </trkpt>
            <trkpt lon="101.291767" lat="14.321328">
                <ele>42.440000</ele>
                <time>2017-01-29T04:19:24Z</time>
            </trkpt>
            <trkpt lon="101.291781" lat="14.321180">
                <ele>42.440000</ele>
                <time>2017-01-29T04:19:27Z</time>
            </trkpt>
            <trkpt lon="101.291837" lat="14.320962">
                <ele>41.950000</ele>
                <time>2017-01-29T04:19:32Z</time>
            </trkpt>
            <trkpt lon="101.292161" lat="14.320932">
                <ele>42.440000</ele>
                <time>2017-01-29T04:19:39Z</time>
            </trkpt>
            <trkpt lon="101.292558" lat="14.320664">
                <ele>42.440000</ele>
                <time>2017-01-29T04:19:47Z</time>
            </trkpt>
            <trkpt lon="101.292665" lat="14.320232">
                <ele>42.440000</ele>
                <time>2017-01-29T04:19:55Z</time>
            </trkpt>
            <trkpt lon="101.292689" lat="14.320132">
                <ele>40.990000</ele>
                <time>2017-01-29T04:19:59Z</time>
            </trkpt>
            <trkpt lon="101.292657" lat="14.320340">
                <ele>40.990000</ele>
                <time>2017-01-29T04:20:07Z</time>
            </trkpt>
            <trkpt lon="101.292428" lat="14.320371">
                <ele>41.950000</ele>
                <time>2017-01-29T04:20:13Z</time>
            </trkpt>
            <trkpt lon="101.290824" lat="14.320883">
                <ele>42.920000</ele>
                <time>2017-01-29T04:20:50Z</time>
            </trkpt>
            <trkpt lon="101.290589" lat="14.320984">
                <ele>43.400000</ele>
                <time>2017-01-29T04:20:55Z</time>
            </trkpt>
            <trkpt lon="101.288920" lat="14.319518">
                <ele>45.320000</ele>
                <time>2017-01-29T04:21:37Z</time>
            </trkpt>
            <trkpt lon="101.288651" lat="14.319500">
                <ele>45.800000</ele>
                <time>2017-01-29T04:21:42Z</time>
            </trkpt>
            <trkpt lon="101.288516" lat="14.319432">
                <ele>45.800000</ele>
                <time>2017-01-29T04:21:45Z</time>
            </trkpt>
            <trkpt lon="101.288424" lat="14.319375">
                <ele>45.800000</ele>
                <time>2017-01-29T04:21:48Z</time>
            </trkpt>
            <trkpt lon="101.288429" lat="14.319326">
                <ele>46.280000</ele>
                <time>2017-01-29T04:21:50Z</time>
            </trkpt>
            <trkpt lon="101.288888" lat="14.318452">
                <ele>46.280000</ele>
                <time>2017-01-29T04:22:10Z</time>
            </trkpt>
            <trkpt lon="101.289388" lat="14.317811">
                <ele>45.320000</ele>
                <time>2017-01-29T04:22:24Z</time>
            </trkpt>
            <trkpt lon="101.288924" lat="14.316637">
                <ele>43.880000</ele>
                <time>2017-01-29T04:22:44Z</time>
            </trkpt>
            <trkpt lon="101.286093" lat="14.316228">
                <ele>47.240000</ele>
                <time>2017-01-29T04:23:34Z</time>
            </trkpt>
            <trkpt lon="101.285269" lat="14.315813">
                <ele>45.800000</ele>
                <time>2017-01-29T04:23:49Z</time>
            </trkpt>
            <trkpt lon="101.285204" lat="14.315820">
                <ele>45.320000</ele>
                <time>2017-01-29T04:23:51Z</time>
            </trkpt>
            <trkpt lon="101.284752" lat="14.316189">
                <ele>46.280000</ele>
                <time>2017-01-29T04:24:06Z</time>
            </trkpt>
            <trkpt lon="101.284686" lat="14.316549">
                <ele>46.760000</ele>
                <time>2017-01-29T04:24:17Z</time>
            </trkpt>
            <trkpt lon="101.284489" lat="14.316732">
                <ele>47.240000</ele>
                <time>2017-01-29T04:24:26Z</time>
            </trkpt>
            <trkpt lon="101.283911" lat="14.316720">
                <ele>47.240000</ele>
                <time>2017-01-29T04:24:45Z</time>
            </trkpt>
            <trkpt lon="101.283669" lat="14.316946">
                <ele>45.800000</ele>
                <time>2017-01-29T04:24:55Z</time>
            </trkpt>
            <trkpt lon="101.283767" lat="14.317281">
                <ele>46.760000</ele>
                <time>2017-01-29T04:25:05Z</time>
            </trkpt>
            <trkpt lon="101.283604" lat="14.317593">
                <ele>48.200000</ele>
                <time>2017-01-29T04:25:16Z</time>
            </trkpt>
            <trkpt lon="101.283527" lat="14.317594">
                <ele>48.200000</ele>
                <time>2017-01-29T04:25:18Z</time>
            </trkpt>
            <trkpt lon="101.283040" lat="14.317520">
                <ele>48.200000</ele>
                <time>2017-01-29T04:25:30Z</time>
            </trkpt>
            <trkpt lon="101.282769" lat="14.317301">
                <ele>48.680000</ele>
                <time>2017-01-29T04:25:40Z</time>
            </trkpt>
            <trkpt lon="101.282851" lat="14.316931">
                <ele>50.130000</ele>
                <time>2017-01-29T04:25:52Z</time>
            </trkpt>
            <trkpt lon="101.283439" lat="14.316492">
                <ele>48.680000</ele>
                <time>2017-01-29T04:26:09Z</time>
            </trkpt>
            <trkpt lon="101.283665" lat="14.316104">
                <ele>48.680000</ele>
                <time>2017-01-29T04:26:19Z</time>
            </trkpt>
            <trkpt lon="101.283477" lat="14.315805">
                <ele>48.200000</ele>
                <time>2017-01-29T04:26:30Z</time>
            </trkpt>
            <trkpt lon="101.283486" lat="14.315483">
                <ele>47.240000</ele>
                <time>2017-01-29T04:26:37Z</time>
            </trkpt>
            <trkpt lon="101.283160" lat="14.315310">
                <ele>47.240000</ele>
                <time>2017-01-29T04:26:45Z</time>
            </trkpt>
            <trkpt lon="101.282845" lat="14.315476">
                <ele>48.680000</ele>
                <time>2017-01-29T04:26:53Z</time>
            </trkpt>
            <trkpt lon="101.282758" lat="14.315575">
                <ele>48.680000</ele>
                <time>2017-01-29T04:26:56Z</time>
            </trkpt>
            <trkpt lon="101.281886" lat="14.315553">
                <ele>51.090000</ele>
                <time>2017-01-29T04:27:19Z</time>
            </trkpt>
            <trkpt lon="101.281747" lat="14.315517">
                <ele>51.090000</ele>
                <time>2017-01-29T04:27:23Z</time>
            </trkpt>
            <trkpt lon="101.281742" lat="14.315908">
                <ele>51.570000</ele>
                <time>2017-01-29T04:27:34Z</time>
            </trkpt>
            <trkpt lon="101.281848" lat="14.316132">
                <ele>50.610000</ele>
                <time>2017-01-29T04:27:42Z</time>
            </trkpt>
            <trkpt lon="101.281618" lat="14.316024">
                <ele>52.530000</ele>
                <time>2017-01-29T04:28:00Z</time>
            </trkpt>
            <trkpt lon="101.281023" lat="14.315105">
                <ele>54.450000</ele>
                <time>2017-01-29T04:28:28Z</time>
            </trkpt>
            <trkpt lon="101.281463" lat="14.313716">
                <ele>52.530000</ele>
                <time>2017-01-29T04:28:56Z</time>
            </trkpt>
            <trkpt lon="101.281419" lat="14.313501">
                <ele>53.010000</ele>
                <time>2017-01-29T04:29:01Z</time>
            </trkpt>
            <trkpt lon="101.281253" lat="14.313420">
                <ele>53.490000</ele>
                <time>2017-01-29T04:29:05Z</time>
            </trkpt>
            <trkpt lon="101.280435" lat="14.313476">
                <ele>56.860000</ele>
                <time>2017-01-29T04:29:22Z</time>
            </trkpt>
            <trkpt lon="101.279819" lat="14.313932">
                <ele>59.260000</ele>
                <time>2017-01-29T04:29:40Z</time>
            </trkpt>
            <trkpt lon="101.278492" lat="14.314869">
                <ele>62.620000</ele>
                <time>2017-01-29T04:30:14Z</time>
            </trkpt>
            <trkpt lon="101.277357" lat="14.315960">
                <ele>63.580000</ele>
                <time>2017-01-29T04:30:40Z</time>
            </trkpt>
            <trkpt lon="101.274803" lat="14.316996">
                <ele>72.240000</ele>
                <time>2017-01-29T04:31:31Z</time>
            </trkpt>
            <trkpt lon="101.274567" lat="14.317501">
                <ele>70.790000</ele>
                <time>2017-01-29T04:31:45Z</time>
            </trkpt>
            <trkpt lon="101.274871" lat="14.318491">
                <ele>65.510000</ele>
                <time>2017-01-29T04:32:26Z</time>
            </trkpt>
            <trkpt lon="101.274918" lat="14.318520">
                <ele>65.990000</ele>
                <time>2017-01-29T04:33:31Z</time>
            </trkpt>
        </trkseg>
    </trk>
</gpx>